Airfield :
LOGIN :

Register | Disclaimer

   EN    FR    IT 

 










Legend :    VFR   Marginal VFR   IFR   Intensive IFR   Very Intensive IFR
Visi :
Ceiling :
>= 8 km
>= 3000ft
5 to 8 km
1000 to 3000 ft
1500m to 5 km
500 to 1000 ft
800 to 1500m
200 to 500 ft
< 800m
< 200 ft
Symbols :   Thunderstorms  Fog  Heavy snow  Heavy precipitations  Wind > 20 kt
SIGMETs :     Misc.  Thunderstorms  Icing  Turbulence  Mountain Waves  Volcanic Ashes







- Airport Elevation : 1197 ft
- IATA code : SPM


ETAD - Spangdahlem Ab

CURRENT METAR :
  • 241056Z AUTO 21016G18KT 9999 SCT120 21/08 A2959 RMK AO2 SLP002 T02090078 $

EXPIRED METARs :
  • 240956Z AUTO 21011G20KT 9999 CLR 20/08 A2960 RMK AO2 SLP006 T02000083 $
  • 240856Z AUTO 20012G21KT 9999 FEW130 19/09 A2959 RMK AO2 SLP002 60000 T01850085 52011 $

TAF TAF ETAD
Valid from the 24 at 05:00 until the 25 at 10:00 UTC


240400Z 2405/2510 11006KT 9999 SCT050 BKN080 QNH2952INS
TEMPO 2407/2410 21012G18KT
BECMG 2412/2413 18009KT 9999 BKN040 QNH2963INS
TEMPO 2413/2419 22009KT 6000 -SHRA
BECMG 2420/2421 19009KT 9999 SCT025 QNH2966INS
BECMG 2506/2507 21010G20KT 9999 SCT025 BKN060 QNH2977INS TX19/2412Z TN08/2405Z
No reported NOTAMs for that airfield.



MET'MAP, your aeronautical weather chart ! - Copyright ORBIFLY December 2007 - Disclaimer

ORBIFLY MET'MAP TEAM :

Programming & Development : Alexandra Zaïnal
Concept & Development : Baudouin d'Aumeries
Co-Development & Prog : Marc-Olivier Méhu
Technical & hardware support : Manuel Goepfert

Contact : metmap@orbifly.com




SOURCES & CREDITS :

   NOAA